Palmer Park, Maryland
Current Conditions -  °F | °C
As of 8:40 PM on Monday 24 Nov 2014 (Local Time) from KCGS Reporting Station
Clear Clear  
Wind Chill: 20°   Ceiling: Unl
Heat Index: 20°   Visibility: 10mi
Dew Point: 13°   Wind: 6mph
Humidity: 64%   Direction: 190°S
Pressure: 29.72"   Gusts: NA
Location:  38.9183°N, 76.8721°W
Report Text: KCGS 250140Z AUTO 19005KT 10SM CLR 20/13 A2972 RMK AO1
Loading
Personal Weather Stations






























Interactive Weather Map New forecast layout! Learn more

10-Day Weather Forecast

Advertisements
Track Severe Weather on mobile